M I D A S
Marine Information and Data Acquisition System
Tripno 1881 of the Zeeleeuw from 2010-05-19 05:32:55 to 2010-05-19 16:14:19
Back to CruiseResearch ActivitiesStationsMapUnderway DataData graphs

EquipmentUnitsComment
TimeDGPSUTC
LatitudeDGPSDM.mWGS84
LongitudeDGPSDM.mWGS84
HeadingGyrodeg 
SOGDGPSknotsSpeed over ground
COGDGPSdegCourse over ground
DepthEcho soundermeters200 kHz
Missing or incorrect values are displayed as -999
Navigation data collected by the RV Zeeleeuw from 2010-05-19 05:11:16 to 2010-05-19 16:22:19
                                                                                    Next 1000 lines
Time Latitude Longitude Heading SOG COG Depth
2010-05-19 05:11:27 51°13.66 2°55.959 126.9 -999 351 -999
2010-05-19 05:11:32 51°13.66 2°55.959 126.8 0.1 9 -999
2010-05-19 05:11:38 51°13.66 2°55.96 126.8 -999 309 -999
2010-05-19 05:11:42 51°13.66 2°55.96 126.8 -999 139 -999
2010-05-19 05:11:47 51°13.66 2°55.96 126.8 -999 201 -999
2010-05-19 05:11:52 51°13.66 2°55.96 126.8 -999 343 -999
2010-05-19 05:11:57 51°13.66 2°55.96 126.8 0.1 327 -999
2010-05-19 05:12:02 51°13.66 2°55.96 126.8 0.1 342 -999
2010-05-19 05:12:07 51°13.66 2°55.96 126.7 0.1 355 -999
2010-05-19 05:12:12 51°13.66 2°55.96 126.6 0.1 336 -999
2010-05-19 05:12:18 51°13.66 2°55.96 126.6 -999 207 -999
2010-05-19 05:12:22 51°13.66 2°55.96 126.6 -999 223 -999
2010-05-19 05:12:27 51°13.66 2°55.96 126.5 0.1 2 -999
2010-05-19 05:12:32 51°13.66 2°55.96 126.5 0.1 358 -999
2010-05-19 05:12:38 51°13.66 2°55.96 126.5 -999 236 -999
2010-05-19 05:12:43 51°13.66 2°55.96 126.5 0.1 -999 -999
2010-05-19 05:12:47 51°13.66 2°55.96 126.5 0.1 353 -999
2010-05-19 05:12:52 51°13.66 2°55.96 126.5 -999 311 -999
2010-05-19 05:12:57 51°13.66 2°55.96 126.5 -999 341 -999
2010-05-19 05:13:03 51°13.66 2°55.96 126.5 0.1 2 -999
2010-05-19 05:13:07 51°13.661 2°55.959 126.5 0.2 -999 -999
2010-05-19 05:13:13 51°13.661 2°55.959 126.5 0.2 359 -999
2010-05-19 05:13:17 51°13.66 2°55.959 126.4 -999 311 -999
2010-05-19 05:13:22 51°13.66 2°55.959 126.4 -999 304 -999
2010-05-19 05:13:27 51°13.66 2°55.959 126.4 0.1 350 -999
2010-05-19 05:13:33 51°13.66 2°55.959 126.4 0.1 327 -999
2010-05-19 05:13:37 51°13.66 2°55.959 126.4 0.1 178 -999
2010-05-19 05:13:42 51°13.66 2°55.959 126.3 0.2 233 -999
2010-05-19 05:13:47 51°13.659 2°55.958 126.3 0.3 238 -999
2010-05-19 05:13:52 51°13.659 2°55.958 126.3 0.2 232 -999
2010-05-19 05:13:57 51°13.66 2°55.959 126.2 0.1 231 -999
2010-05-19 05:14:02 51°13.66 2°55.959 126.2 0.1 248 -999
2010-05-19 05:14:07 51°13.66 2°55.959 126.2 0.1 246 -999
2010-05-19 05:14:12 51°13.66 2°55.959 126.2 0.1 250 -999
2010-05-19 05:14:17 51°13.66 2°55.959 126.2 0.1 229 -999
2010-05-19 05:14:22 51°13.66 2°55.959 126.1 -999 6 -999
2010-05-19 05:14:28 51°13.661 2°55.959 126.1 0.1 337 -999
2010-05-19 05:14:32 51°13.66 2°55.959 126 0.2 247 -999
2010-05-19 05:14:37 51°13.66 2°55.959 126 0.2 224 -999
2010-05-19 05:14:42 51°13.66 2°55.959 126 0.1 205 -999
2010-05-19 05:14:43 51°13.66 2°55.959 126 -999 22 8.2
2010-05-19 05:14:43 51°13.66 2°55.959 126 -999 27 8.2
2010-05-19 05:14:43 51°13.66 2°55.959 126 -999 334 8.2
2010-05-19 05:14:43 51°13.66 2°55.959 126 -999 203 8.2
2010-05-19 05:14:43 51°13.66 2°55.959 126 -999 206 8.2
2010-05-19 05:14:43 51°13.66 2°55.959 126 -999 29 8.2
2010-05-19 05:14:43 51°13.66 2°55.959 126 -999 202 8.2
2010-05-19 05:14:43 51°13.66 2°55.959 126 -999 188 8.2
2010-05-19 05:14:43 51°13.66 2°55.959 126 -999 23 8.2
2010-05-19 05:14:43 51°13.66 2°55.959 126 -999 25 8.2
2010-05-19 05:14:43 51°13.66 2°55.959 126 -999 195 -999
2010-05-19 05:14:43 51°13.66 2°55.959 126 -999 10 8.2
2010-05-19 05:15:47 51°13.66 2°55.959 126 -999 18 8.2
2010-05-19 05:15:52 51°13.66 2°55.959 126 -999 206 8.2
2010-05-19 05:15:57 51°13.66 2°55.959 126 -999 196 8.2
2010-05-19 05:16:02 51°13.66 2°55.959 126.1 -999 24 8.2
2010-05-19 05:16:07 51°13.66 2°55.959 126.1 -999 226 8.2
2010-05-19 05:16:12 51°13.66 2°55.959 126.2 -999 202 8.2
2010-05-19 05:16:16 51°13.66 2°55.959 126.2 -999 28 8.2
2010-05-19 05:16:22 51°13.66 2°55.959 126.2 -999 20 8.2
2010-05-19 05:16:27 51°13.66 2°55.959 126.2 -999 205 8.1
2010-05-19 05:16:32 51°13.66 2°55.959 126.2 -999 191 8.2
2010-05-19 05:16:36 51°13.66 2°55.959 126.2 -999 23 8.2
2010-05-19 05:16:42 51°13.66 2°55.959 126.2 -999 213 8.2
2010-05-19 05:16:47 51°13.66 2°55.959 126.2 -999 202 8.2
2010-05-19 05:16:52 51°13.66 2°55.959 126.2 -999 26 8.2
2010-05-19 05:16:56 51°13.66 2°55.959 126.1 -999 19 8.2
2010-05-19 05:17:02 51°13.66 2°55.959 126 -999 204 8.2
2010-05-19 05:17:06 51°13.66 2°55.959 126 -999 159 8.1
2010-05-19 05:17:12 51°13.66 2°55.959 125.9 -999 23 8.2
2010-05-19 05:17:16 51°13.66 2°55.959 125.8 -999 209 8.2
2010-05-19 05:17:21 51°13.66 2°55.959 125.8 -999 201 8.2
2010-05-19 05:17:26 51°13.66 2°55.959 125.7 -999 26 8.1
2010-05-19 05:17:32 51°13.66 2°55.959 125.7 -999 17 8.1
2010-05-19 05:17:36 51°13.66 2°55.959 125.7 -999 204 8.1
2010-05-19 05:17:41 51°13.66 2°55.959 125.7 -999 47 8.2
2010-05-19 05:17:46 51°13.66 2°55.959 125.7 -999 22 8.2
2010-05-19 05:17:52 51°13.66 2°55.959 125.6 -999 208 8.2
2010-05-19 05:17:56 51°13.66 2°55.959 125.6 -999 200 8.2
2010-05-19 05:18:01 51°13.66 2°55.959 125.6 -999 25 8.2
2010-05-19 05:18:06 51°13.66 2°55.959 125.7 -999 -999 8.1
2010-05-19 05:18:12 51°13.66 2°55.959 125.9 -999 233 8.1
2010-05-19 05:18:16 51°13.66 2°55.959 126 -999 200 8.2
2010-05-19 05:18:21 51°13.66 2°55.959 126.1 -999 237 8.2
2010-05-19 05:18:26 51°13.66 2°55.959 126.1 -999 220 8.2
2010-05-19 05:18:32 51°13.66 2°55.959 126.1 -999 219 8.2
2010-05-19 05:18:36 51°13.66 2°55.959 126.1 -999 220 8.2
2010-05-19 05:18:41 51°13.66 2°55.959 125.9 -999 219 8.1
2010-05-19 05:18:46 51°13.66 2°55.959 125.8 -999 200 8.1
2010-05-19 05:18:51 51°13.659 2°55.958 125.7 -999 325 8.1
2010-05-19 05:18:56 51°13.658 2°55.958 125.5 -999 302 8.1
2010-05-19 05:19:01 51°13.658 2°55.958 125.4 -999 294 8.1
2010-05-19 05:19:05 51°13.659 2°55.958 125.3 -999 297 8.1
2010-05-19 05:19:10 51°13.659 2°55.958 125.1 -999 330 8.1
2010-05-19 05:19:16 51°13.659 2°55.958 125.1 -999 329 8.1
2010-05-19 05:19:20 51°13.659 2°55.958 125 -999 341 8.1
2010-05-19 05:19:25 51°13.659 2°55.959 124.9 -999 345 8.1
2010-05-19 05:19:30 51°13.659 2°55.96 124.9 -999 116 8.1
2010-05-19 05:19:35 51°13.659 2°55.96 124.9 -999 29 8.1
2010-05-19 05:19:40 51°13.659 2°55.961 124.9 -999 214 8.1
2010-05-19 05:19:44 51°13.659 2°55.961 124.9 -999 249 8.1
2010-05-19 05:19:49 51°13.659 2°55.961 124.9 -999 328 8.1
2010-05-19 05:19:54 51°13.659 2°55.961 124.9 -999 1 8.1
2010-05-19 05:19:59 51°13.66 2°55.96 124.9 -999 16 8.1
2010-05-19 05:20:04 51°13.66 2°55.959 124.9 -999 41 8.1
2010-05-19 05:20:09 51°13.661 2°55.959 124.9 -999 39 8.1
2010-05-19 05:20:14 51°13.661 2°55.959 124.9 -999 335 8.1
2010-05-19 05:20:19 51°13.662 2°55.959 124.9 -999 352 8.1
2010-05-19 05:20:24 51°13.662 2°55.959 124.9 -999 27 8.1
2010-05-19 05:20:29 51°13.662 2°55.959 124.9 -999 335 8.1
2010-05-19 05:20:33 51°13.662 2°55.959 124.8 -999 343 8.1
2010-05-19 05:20:39 51°13.662 2°55.959 124.9 -999 240 8.1
2010-05-19 05:20:43 51°13.663 2°55.959 124.9 -999 9 8.1
2010-05-19 05:20:49 51°13.663 2°55.959 124.9 -999 233 8.1
2010-05-19 05:20:53 51°13.663 2°55.959 124.9 -999 210 8.1
2010-05-19 05:20:59 51°13.663 2°55.959 124.9 -999 231 8.1
2010-05-19 05:21:03 51°13.663 2°55.959 124.9 -999 237 8.1
2010-05-19 05:21:09 51°13.663 2°55.959 124.9 -999 210 8.1
2010-05-19 05:21:13 51°13.663 2°55.959 124.9 -999 237 8.1
2010-05-19 05:21:19 51°13.663 2°55.959 124.9 -999 358 8.1
2010-05-19 05:21:24 51°13.663 2°55.959 124.9 -999 187 8.1
2010-05-19 05:21:29 51°13.663 2°55.959 124.9 -999 227 8.1
2010-05-19 05:21:34 51°13.663 2°55.959 124.9 0.1 316 8.1
2010-05-19 05:21:39 51°13.663 2°55.959 124.9 -999 19 8.1
2010-05-19 05:21:44 51°13.663 2°55.959 124.9 -999 22 8.1
2010-05-19 05:21:49 51°13.663 2°55.959 124.9 -999 3 8.1
2010-05-19 05:21:54 51°13.663 2°55.959 124.8 -999 95 8.1
2010-05-19 05:21:59 51°13.663 2°55.959 124.8 -999 25 8.1
2010-05-19 05:22:04 51°13.663 2°55.959 124.8 -999 27 8.1
2010-05-19 05:22:09 51°13.663 2°55.959 124.7 -999 45 8.1
2010-05-19 05:22:14 51°13.663 2°55.959 124.7 -999 139 8.1
2010-05-19 05:22:18 51°13.663 2°55.959 124.7 -999 133 8.1
2010-05-19 05:22:24 51°13.663 2°55.959 124.7 -999 26 8
2010-05-19 05:22:29 51°13.663 2°55.959 124.7 -999 25 8
2010-05-19 05:22:34 51°13.663 2°55.959 124.7 -999 77 8.1
2010-05-19 05:22:38 51°13.663 2°55.959 124.7 -999 11 8.1
2010-05-19 05:22:44 51°13.663 2°55.959 124.7 -999 232 8.1
2010-05-19 05:22:49 51°13.663 2°55.959 124.7 -999 32 8.1
2010-05-19 05:22:53 51°13.664 2°55.959 124.7 -999 40 8.1
2010-05-19 05:22:58 51°13.664 2°55.958 124.7 -999 23 8.1
2010-05-19 05:23:04 51°13.664 2°55.959 124.7 0.1 31 8.1
2010-05-19 05:23:09 51°13.665 2°55.959 124.7 0.1 26 8.1
2010-05-19 05:23:14 51°13.665 2°55.96 124.7 0.1 22 8.1
2010-05-19 05:23:18 51°13.666 2°55.961 124.7 0.1 19 8.2
2010-05-19 05:23:24 51°13.666 2°55.961 124.7 0.1 32 8
2010-05-19 05:23:25 51°13.665 2°55.96 124.7 -999 35 8.1
2010-05-19 05:23:25 51°13.665 2°55.96 124.6 -999 38 8.1
2010-05-19 05:23:25 51°13.665 2°55.96 124.6 -999 203 8.1
2010-05-19 05:23:25 51°13.665 2°55.96 124.7 -999 214 8.2
2010-05-19 05:23:25 51°13.665 2°55.96 124.6 -999 215 8.1
2010-05-19 05:23:25 51°13.665 2°55.96 124.6 -999 36 8.1
2010-05-19 05:23:25 51°13.665 2°55.96 124.6 -999 227 8.1
2010-05-19 05:23:25 51°13.665 2°55.96 124.6 -999 33 8.1
2010-05-19 05:23:25 51°13.665 2°55.96 124.6 -999 209 8.1
2010-05-19 05:23:25 51°13.665 2°55.96 124.6 -999 216 8.1
2010-05-19 05:23:25 51°13.665 2°55.96 124.7 -999 37 8.2
2010-05-19 05:23:25 51°13.665 2°55.96 124.7 -999 221 8.1
2010-05-19 05:24:29 51°13.665 2°55.96 124.6 -999 218 8.1
2010-05-19 05:24:34 51°13.665 2°55.96 124.6 -999 34 8.1
2010-05-19 05:24:38 51°13.665 2°55.96 124.6 -999 39 8.1
2010-05-19 05:24:44 51°13.665 2°55.96 124.6 -999 215 8.1
2010-05-19 05:24:49 51°13.665 2°55.96 124.6 -999 30 8.1
2010-05-19 05:24:54 51°13.665 2°55.96 124.6 -999 36 8.1
2010-05-19 05:24:58 51°13.665 2°55.96 124.6 -999 212 8.1
2010-05-19 05:25:04 51°13.665 2°55.96 124.5 -999 217 8.1
2010-05-19 05:25:09 51°13.665 2°55.96 124.5 -999 35 8.1
2010-05-19 05:25:14 51°13.665 2°55.96 124.5 -999 41 8.1
2010-05-19 05:25:18 51°13.665 2°55.96 124.5 -999 215 8.1
2010-05-19 05:25:23 51°13.665 2°55.96 124.5 -999 22 8.1
2010-05-19 05:25:29 51°13.665 2°55.96 124.5 -999 38 8.1
2010-05-19 05:25:34 51°13.665 2°55.96 124.5 -999 213 8.1
2010-05-19 05:25:38 51°13.665 2°55.96 124.5 -999 218 8.1
2010-05-19 05:25:43 51°13.665 2°55.96 124.5 -999 35 8.1
2010-05-19 05:25:49 51°13.665 2°55.96 124.5 -999 47 8.1
2010-05-19 05:25:54 51°13.665 2°55.96 124.5 -999 216 8.1
2010-05-19 05:25:59 51°13.665 2°55.96 124.5 -999 29 8.1
2010-05-19 05:26:04 51°13.665 2°55.96 124.5 -999 37 8.1
2010-05-19 05:26:09 51°13.665 2°55.96 124.6 -999 214 8.1
2010-05-19 05:26:14 51°13.665 2°55.96 124.9 -999 219 8.1
2010-05-19 05:26:19 51°13.665 2°55.96 125.3 -999 35 8
2010-05-19 05:26:24 51°13.665 2°55.96 125.8 -999 96 8.1
2010-05-19 05:26:29 51°13.665 2°55.96 126.3 -999 216 8.1
2010-05-19 05:26:34 51°13.665 2°55.96 127 -999 32 8.1
2010-05-19 05:26:38 51°13.665 2°55.96 127.7 -999 36 8
2010-05-19 05:26:44 51°13.654 2°55.945 128.1 0.2 52 8.1
2010-05-19 05:26:49 51°13.661 2°55.96 128.2 0.1 41 8.1
2010-05-19 05:26:54 51°13.661 2°55.961 128.2 -999 336 8
2010-05-19 05:26:58 51°13.662 2°55.961 128.2 -999 318 8.1
2010-05-19 05:27:04 51°13.662 2°55.962 128 -999 297 8.1
2010-05-19 05:27:09 51°13.662 2°55.962 127.9 -999 12 8.1
2010-05-19 05:27:14 51°13.662 2°55.961 127.9 -999 353 8.1
2010-05-19 05:27:19 51°13.662 2°55.961 127.8 -999 234 8.1
2010-05-19 05:27:24 51°13.662 2°55.961 127.8 -999 160 8.1
2010-05-19 05:27:29 51°13.661 2°55.962 127.8 -999 228 8.1
2010-05-19 05:27:34 51°13.661 2°55.962 127.8 -999 355 8.1
2010-05-19 05:27:38 51°13.661 2°55.962 127.8 -999 350 8.1
2010-05-19 05:27:43 51°13.66 2°55.962 127.8 -999 347 8.1
2010-05-19 05:27:49 51°13.659 2°55.962 127.8 -999 277 8.1
2010-05-19 05:27:54 51°13.658 2°55.962 127.8 -999 219 8.1
2010-05-19 05:27:59 51°13.658 2°55.962 127.8 -999 315 8
2010-05-19 05:28:04 51°13.657 2°55.961 127.8 -999 5 8
2010-05-19 05:28:09 51°13.658 2°55.961 127.8 -999 48 8
2010-05-19 05:28:15 51°13.659 2°55.96 127.8 -999 135 8
2010-05-19 05:28:19 51°13.659 2°55.96 127.8 -999 70 8
2010-05-19 05:28:24 51°13.66 2°55.96 127.8 -999 75 8
2010-05-19 05:28:29 51°13.66 2°55.959 127.8 -999 354 8
2010-05-19 05:28:34 51°13.66 2°55.959 127.9 -999 248 8
2010-05-19 05:28:39 51°13.66 2°55.959 127.9 -999 300 8
2010-05-19 05:28:44 51°13.66 2°55.959 127.9 -999 231 8
2010-05-19 05:28:49 51°13.66 2°55.959 127.9 -999 252 8
2010-05-19 05:28:54 51°13.661 2°55.959 127.9 -999 88 8
2010-05-19 05:28:59 51°13.661 2°55.959 127.9 -999 33 8
2010-05-19 05:29:04 51°13.661 2°55.959 127.9 -999 172 8
2010-05-19 05:29:09 51°13.661 2°55.959 127.9 -999 223 8
2010-05-19 05:29:14 51°13.66 2°55.959 127.9 -999 171 8.1
2010-05-19 05:29:19 51°13.66 2°55.959 127.9 -999 50 8
2010-05-19 05:29:24 51°13.661 2°55.959 127.9 -999 13 8
2010-05-19 05:29:29 51°13.661 2°55.959 127.9 -999 148 8
2010-05-19 05:29:34 51°13.661 2°55.959 127.9 -999 125 8.1
2010-05-19 05:29:39 51°13.661 2°55.959 127.9 -999 91 8.1
2010-05-19 05:29:43 51°13.661 2°55.959 128 -999 55 8.1
2010-05-19 05:29:49 51°13.661 2°55.959 128 -999 146 8
2010-05-19 05:29:54 51°13.661 2°55.959 128 -999 302 8
2010-05-19 05:29:59 51°13.661 2°55.96 128 -999 296 8
2010-05-19 05:30:04 51°13.661 2°55.96 127.9 -999 -999 8.1
2010-05-19 05:30:09 51°13.661 2°55.96 127.9 -999 14 8
2010-05-19 05:30:14 51°13.661 2°55.96 127.9 -999 190 8
2010-05-19 05:30:19 51°13.661 2°55.96 127.9 -999 217 8
2010-05-19 05:30:24 51°13.661 2°55.96 127.9 -999 341 8
2010-05-19 05:30:29 51°13.661 2°55.96 127.9 -999 340 8
2010-05-19 05:30:34 51°13.661 2°55.96 127.9 -999 308 8
2010-05-19 05:30:39 51°13.661 2°55.96 127.9 -999 6 8
2010-05-19 05:30:44 51°13.661 2°55.96 127.9 -999 241 8
2010-05-19 05:30:49 51°13.661 2°55.96 128 -999 243 8.1
2010-05-19 05:30:54 51°13.661 2°55.961 128 -999 29 8.1
2010-05-19 05:30:59 51°13.661 2°55.961 128 -999 331 8.1
2010-05-19 05:31:04 51°13.661 2°55.961 128.1 -999 347 8.1
2010-05-19 05:31:09 51°13.661 2°55.961 128.1 -999 188 8.1
2010-05-19 05:31:14 51°13.661 2°55.961 128.1 -999 306 8.1
2010-05-19 05:31:19 51°13.661 2°55.96 128.1 -999 316 8.1
2010-05-19 05:31:24 51°13.661 2°55.96 128.1 -999 355 8
2010-05-19 05:31:29 51°13.661 2°55.96 128.1 -999 42 8
2010-05-19 05:31:34 51°13.661 2°55.96 128.2 -999 52 8.1
2010-05-19 05:31:39 51°13.661 2°55.961 128.2 0.1 66 8
2010-05-19 05:31:44 51°13.661 2°55.961 127.8 0.1 95 8
2010-05-19 05:31:49 51°13.661 2°55.961 127 -999 103 8
2010-05-19 05:31:54 51°13.661 2°55.961 125.7 -999 175 8
2010-05-19 05:31:59 51°13.661 2°55.961 124.8 -999 180 8
2010-05-19 05:32:04 51°13.661 2°55.961 123.9 0.1 207 8
2010-05-19 05:32:09 51°13.66 2°55.961 122.7 0.1 200 8
2010-05-19 05:32:14 51°13.66 2°55.961 121.8 0.1 205 8.1
2010-05-19 05:32:19 51°13.66 2°55.961 120.6 0.1 202 8.1
2010-05-19 05:32:24 51°13.66 2°55.961 119.7 0.1 201 8.1
2010-05-19 05:32:29 51°13.66 2°55.961 118.6 0.1 191 8.1
2010-05-19 05:32:34 51°13.66 2°55.96 117.6 0.1 200 8.1
2010-05-19 05:32:39 51°13.66 2°55.96 116.4 0.1 199 8.1
2010-05-19 05:32:44 51°13.66 2°55.96 115.3 0.1 199 8.1
2010-05-19 05:32:49 51°13.66 2°55.96 114.2 0.1 219 8.1
2010-05-19 05:32:54 51°13.66 2°55.96 113.2 0.1 263 8.1
2010-05-19 05:32:59 51°13.66 2°55.96 111.9 0.2 274 8.1
2010-05-19 05:33:04 51°13.66 2°55.959 111.3 0.5 292 8.1
2010-05-19 05:33:09 51°13.66 2°55.957 110.9 0.8 289 8.1
2010-05-19 05:33:14 51°13.661 2°55.955 110.6 1.1 291 8.1
2010-05-19 05:33:19 51°13.662 2°55.952 110.4 1.5 292 8.2
2010-05-19 05:33:24 51°13.662 2°55.948 110.4 1.8 291 8.3
2010-05-19 05:33:30 51°13.664 2°55.942 110.6 2.4 292 -999
2010-05-19 05:33:35 51°13.665 2°55.936 111 2.7 290 -999
2010-05-19 05:33:41 51°13.667 2°55.928 110.9 3.1 291 -999
2010-05-19 05:33:47 51°13.669 2°55.92 110.3 3.4 290 -999
2010-05-19 05:33:52 51°13.671 2°55.912 109.8 3.8 289 -999
2010-05-19 05:33:58 51°13.673 2°55.902 109.5 4 289 -999
2010-05-19 05:34:03 51°13.675 2°55.893 109.2 4.2 289 -999
2010-05-19 05:34:07 51°13.677 2°55.885 109.1 4.5 290 -999
2010-05-19 05:34:13 51°13.679 2°55.874 109.1 4.5 288 -999
2010-05-19 05:34:18 51°13.681 2°55.865 109 4.4 289 -999
2010-05-19 05:34:23 51°13.683 2°55.856 108.8 4.2 288 -999
2010-05-19 05:34:27 51°13.684 2°55.849 108.4 4.1 288 -999
2010-05-19 05:34:33 51°13.686 2°55.839 108.1 4.1 288 -999
2010-05-19 05:34:38 51°13.688 2°55.83 107.7 4.1 288 -999
2010-05-19 05:34:43 51°13.689 2°55.822 107.2 4 288 11.6
2010-05-19 05:34:47 51°13.689 2°55.816 106.8 3.8 288 12
2010-05-19 05:34:53 51°13.691 2°55.807 106.4 3.7 287 -999
2010-05-19 05:34:58 51°13.692 2°55.799 105.4 3.6 286 -999
2010-05-19 05:35:03 51°13.694 2°55.792 104.3 3.5 286 -999
2010-05-19 05:35:07 51°13.695 2°55.786 103.4 3.3 285 13.4
2010-05-19 05:35:12 51°13.696 2°55.779 102.8 3.3 285 13.9
2010-05-19 05:35:17 51°13.698 2°55.772 101.8 3.1 284 14.2
2010-05-19 05:35:22 51°13.699 2°55.766 100.8 3 284 14.3
2010-05-19 05:35:27 51°13.7 2°55.76 99.5 2.9 282 14.5
2010-05-19 05:35:31 51°13.7 2°55.755 98.6 2.6 283 14.5
2010-05-19 05:35:36 51°13.701 2°55.751 97.4 1.9 282 14.6
2010-05-19 05:35:41 51°13.701 2°55.748 95.6 1.4 287 14.6
2010-05-19 05:35:46 51°13.702 2°55.747 92.6 0.7 297 14.6
2010-05-19 05:35:51 51°13.702 2°55.746 87.9 0.4 308 14.5
2010-05-19 05:35:56 51°13.702 2°55.746 83.8 0.3 334 14.6
2010-05-19 05:36:01 51°13.703 2°55.746 79 0.3 349 14.7
2010-05-19 05:36:06 51°13.703 2°55.746 74.8 0.4 5 14.7
2010-05-19 05:36:11 51°13.704 2°55.746 71 0.4 21 14.7
2010-05-19 05:36:15 51°13.704 2°55.746 67.2 0.5 19 14.7
2010-05-19 05:36:20 51°13.705 2°55.747 63.6 0.5 31 14.7
2010-05-19 05:36:25 51°13.706 2°55.748 60.3 0.7 27 14.7
2010-05-19 05:36:30 51°13.707 2°55.749 56.9 0.9 41 14.7
2010-05-19 05:36:35 51°13.708 2°55.75 53.2 1 39 14.6
2010-05-19 05:36:39 51°13.709 2°55.751 48.4 1 29 14.5
2010-05-19 05:36:44 51°13.71 2°55.752 44.9 0.8 32 14.5
2010-05-19 05:36:49 51°13.711 2°55.752 42 0.5 18 14.5
2010-05-19 05:36:54 51°13.711 2°55.752 39.1 0.2 335 14.5
2010-05-19 05:36:59 51°13.711 2°55.752 36.3 0.3 255 14.5
2010-05-19 05:37:04 51°13.71 2°55.751 33.7 0.6 222 14.5
2010-05-19 05:37:09 51°13.709 2°55.749 31.5 0.9 219 14.5
2010-05-19 05:37:14 51°13.708 2°55.748 29.8 1.2 213 14.6
2010-05-19 05:37:19 51°13.706 2°55.746 28.2 1.3 215 14.8
2010-05-19 05:37:24 51°13.704 2°55.745 26.9 1.4 210 6.1
2010-05-19 05:37:30 51°13.703 2°55.743 25.8 1.3 212 -999
2010-05-19 05:37:35 51°13.701 2°55.742 24.8 1 214 -999
2010-05-19 05:37:41 51°13.701 2°55.741 23.4 0.3 225 -999
2010-05-19 05:37:47 51°13.702 2°55.741 20.7 0.5 350 -999
2010-05-19 05:37:52 51°13.703 2°55.741 15.9 1.1 1 -999
2010-05-19 05:37:58 51°13.706 2°55.741 10.2 1.4 357 -999
2010-05-19 05:38:03 51°13.708 2°55.74 2.3 1.8 353 -999
2010-05-19 05:38:08 51°13.711 2°55.739 355.2 2.3 347 -999
2010-05-19 05:38:12 51°13.715 2°55.737 350.1 2.8 343 5
2010-05-19 05:38:18 51°13.72 2°55.734 346.2 3.4 340 -999
2010-05-19 05:38:23 51°13.725 2°55.73 342.2 4 338 14.6
2010-05-19 05:38:27 51°13.729 2°55.727 338.6 4.5 335 14.3
2010-05-19 05:38:32 51°13.735 2°55.722 336.2 4.9 333 14
2010-05-19 05:38:37 51°13.742 2°55.716 334.3 5.2 333 13.5
2010-05-19 05:38:42 51°13.749 2°55.71 333.4 5.7 331 13.3
2010-05-19 05:38:47 51°13.757 2°55.704 333.1 5.9 332 12.8
2010-05-19 05:38:51 51°13.763 2°55.699 332.7 6.1 330 12.9
2010-05-19 05:38:56 51°13.77 2°55.692 331.6 6.2 329 12.9
2010-05-19 05:39:01 51°13.778 2°55.685 330.3 6.3 328 12.9
2010-05-19 05:39:06 51°13.785 2°55.677 329.3 6.3 328 13
2010-05-19 05:39:11 51°13.793 2°55.67 329 6.4 328 13
2010-05-19 05:39:15 51°13.799 2°55.663 329 6.4 328 13
2010-05-19 05:39:20 51°13.806 2°55.655 329.4 6.4 330 13
2010-05-19 05:39:25 51°13.813 2°55.647 329.9 6.4 330 13
2010-05-19 05:39:30 51°13.821 2°55.64 330.6 6.4 330 12.9
2010-05-19 05:39:35 51°13.829 2°55.632 331.3 6.4 330 12.9
2010-05-19 05:39:40 51°13.836 2°55.626 332 6.4 331 13
2010-05-19 05:39:45 51°13.844 2°55.619 332.9 6.3 332 12.9
2010-05-19 05:39:50 51°13.852 2°55.613 333.4 6.3 332 12.9
2010-05-19 05:39:55 51°13.86 2°55.607 333.6 6.3 332 12.9
2010-05-19 05:39:59 51°13.866 2°55.602 333.7 6.2 333 12.8
2010-05-19 05:40:04 51°13.874 2°55.597 333.7 6.2 332 12.6
2010-05-19 05:40:09 51°13.882 2°55.591 333.7 6.1 332 12.5
2010-05-19 05:40:14 51°13.889 2°55.584 333.5 6 332 12.6
2010-05-19 05:40:19 51°13.896 2°55.578 333.2 5.9 332 12.7
2010-05-19 05:40:24 51°13.903 2°55.572 332.9 5.7 332 12.9
2010-05-19 05:40:29 51°13.91 2°55.566 332.5 5.6 331 12.9
2010-05-19 05:40:34 51°13.917 2°55.56 332.5 5.5 332 12.9
2010-05-19 05:40:39 51°13.923 2°55.554 332.5 5.4 332 12.9
2010-05-19 05:40:44 51°13.929 2°55.549 332.5 5.2 332 12.9
2010-05-19 05:40:49 51°13.935 2°55.543 332.7 5.1 332 12.9
2010-05-19 05:40:54 51°13.941 2°55.537 332.8 5 332 12.9
2010-05-19 05:40:59 51°13.947 2°55.532 332.8 4.9 332 12.8
2010-05-19 05:41:04 51°13.953 2°55.527 332.9 4.8 332 12.8
2010-05-19 05:41:09 51°13.959 2°55.522 333 4.6 332 12.8
2010-05-19 05:41:14 51°13.964 2°55.518 333.2 4.5 333 12.8
2010-05-19 05:41:19 51°13.97 2°55.513 333.6 4.5 333 12.8
2010-05-19 05:41:24 51°13.975 2°55.509 334.2 4.4 333 12.8
2010-05-19 05:41:29 51°13.981 2°55.505 335 4.5 334 12.8
2010-05-19 05:41:34 51°13.986 2°55.5 336.1 4.5 336 12.5
2010-05-19 05:41:39 51°13.992 2°55.496 337.3 4.5 336 12.6
2010-05-19 05:41:44 51°13.998 2°55.493 338.6 4.5 338 13
2010-05-19 05:41:49 51°14.004 2°55.489 340 4.5 339 12.5
2010-05-19 05:41:54 51°14.01 2°55.486 341.7 4.5 340 12.8
2010-05-19 05:41:59 51°14.016 2°55.483 343.3 4.5 341 12.8
2010-05-19 05:42:04 51°14.022 2°55.48 344.6 4.5 342 12.7
2010-05-19 05:42:09 51°14.028 2°55.477 345.4 4.5 343 12.8
2010-05-19 05:42:14 51°14.034 2°55.475 345.7 4.6 344 12.8
2010-05-19 05:42:19 51°14.04 2°55.472 345.8 4.6 344 12.8
2010-05-19 05:42:24 51°14.046 2°55.469 346.1 4.6 344 12.8
2010-05-19 05:42:29 51°14.052 2°55.466 346.3 4.6 344 12.8
2010-05-19 05:42:34 51°14.059 2°55.464 346.3 4.6 344 12.8
2010-05-19 05:42:39 51°14.065 2°55.461 346.3 4.6 344 12.8
2010-05-19 05:42:44 51°14.071 2°55.458 346 4.6 344 12.8
2010-05-19 05:42:49 51°14.077 2°55.455 345.6 4.7 343 12.9
2010-05-19 05:42:54 51°14.084 2°55.452 344.9 4.7 342 12.8
2010-05-19 05:42:59 51°14.09 2°55.448 344.1 4.7 342 12.9
2010-05-19 05:43:04 51°14.096 2°55.445 343.2 4.7 341 12.9
2010-05-19 05:43:09 51°14.102 2°55.441 342.4 4.8 340 12.8
2010-05-19 05:43:14 51°14.109 2°55.437 341.6 4.8 339 12.8
2010-05-19 05:43:19 51°14.115 2°55.434 340.9 4.8 339 12.8
2010-05-19 05:43:23 51°14.12 2°55.431 340.2 4.8 338 12.8
2010-05-19 05:43:29 51°14.127 2°55.426 339.4 4.8 338 12.8
2010-05-19 05:43:34 51°14.133 2°55.422 338.5 4.8 336 12.8
2010-05-19 05:43:39 51°14.139 2°55.418 337.6 4.8 336 12.8
2010-05-19 05:43:44 51°14.146 2°55.413 336.9 5 336 12.7
2010-05-19 05:43:49 51°14.152 2°55.408 336.1 5.2 334 12.8
2010-05-19 05:43:54 51°14.159 2°55.403 335.4 5.4 333 12.8
2010-05-19 05:43:59 51°14.166 2°55.397 334.1 5.5 332 13.1
2010-05-19 05:44:04 51°14.173 2°55.391 332.6 5.8 330 12.8
2010-05-19 05:44:09 51°14.18 2°55.384 331.2 6.1 329 12.7
2010-05-19 05:44:14 51°14.188 2°55.377 330.3 6.4 328 12.7
2010-05-19 05:44:19 51°14.196 2°55.369 329 6.6 327 12.6
2010-05-19 05:44:24 51°14.204 2°55.36 328.4 6.8 327 12.7
2010-05-19 05:44:29 51°14.212 2°55.351 328 7.2 326 12.6
2010-05-19 05:44:34 51°14.221 2°55.342 327.6 7.5 325 12.6
2010-05-19 05:44:39 51°14.229 2°55.332 327 7.7 325 12.5
2010-05-19 05:44:44 51°14.239 2°55.322 326.7 8 325 12.7
2010-05-19 05:44:49 51°14.248 2°55.311 326.4 8.2 325 12.7
2010-05-19 05:44:54 51°14.257 2°55.301 326.2 8.3 325 12.8
2010-05-19 05:44:59 51°14.267 2°55.29 326.2 8.5 324 12.6
2010-05-19 05:45:04 51°14.277 2°55.279 326.1 8.6 325 12.6
2010-05-19 05:45:09 51°14.287 2°55.267 326.2 8.7 325 12.6
2010-05-19 05:45:14 51°14.297 2°55.256 326.3 8.9 325 12.8
2010-05-19 05:45:19 51°14.307 2°55.245 326.5 8.9 325 5.5
2010-05-19 05:45:24 51°14.317 2°55.233 326.6 9 324 12.6
2010-05-19 05:45:29 51°14.327 2°55.221 326.7 9.1 325 12.3
2010-05-19 05:45:34 51°14.338 2°55.21 326.7 9.2 325 12.2
2010-05-19 05:45:39 51°14.348 2°55.198 326.9 9.1 325 12.4
2010-05-19 05:45:44 51°14.358 2°55.187 327.1 9 324 5.3
2010-05-19 05:45:49 51°14.368 2°55.175 327 9 324 12.2
2010-05-19 05:45:54 51°14.378 2°55.163 325.8 9 322 12.7
2010-05-19 05:45:59 51°14.388 2°55.15 324.5 9 322 12.1
2010-05-19 05:46:04 51°14.398 2°55.137 323.1 9.2 320 12.4
2010-05-19 05:46:09 51°14.408 2°55.124 322.3 9.4 320 12.3
2010-05-19 05:46:14 51°14.418 2°55.11 322.1 9.5 319 12.2
2010-05-19 05:46:19 51°14.428 2°55.096 322 9.7 319 12.3
2010-05-19 05:46:24 51°14.439 2°55.082 321.9 9.8 320 12.3
2010-05-19 05:46:29 51°14.449 2°55.068 321.9 10 321 12.3
2010-05-19 05:46:34 51°14.46 2°55.055 323.1 10.1 323 12.7
2010-05-19 05:46:39 51°14.472 2°55.042 326.1 10.1 325 12.6
2010-05-19 05:46:44 51°14.484 2°55.03 328.2 10.2 327 12.4
2010-05-19 05:46:49 51°14.496 2°55.018 329.7 10.4 329 12.8
2010-05-19 05:46:54 51°14.509 2°55.006 330.9 10.7 329 12.6
2010-05-19 05:46:59 51°14.522 2°54.994 331.5 11 330 13
2010-05-19 05:47:04 51°14.536 2°54.981 331.6 11.3 330 13.7
2010-05-19 05:47:09 51°14.55 2°54.969 331.2 11.6 330 13.5
2010-05-19 05:47:14 51°14.564 2°54.956 330.6 11.8 330 13.3
2010-05-19 05:47:19 51°14.579 2°54.942 330.2 12 330 13.7
2010-05-19 05:47:24 51°14.594 2°54.929 329.9 12.4 331 13.6
2010-05-19 05:47:29 51°14.609 2°54.915 329.4 12.6 330 13.4
2010-05-19 05:47:34 51°14.624 2°54.902 328.9 12.8 331 13.3
2010-05-19 05:47:39 51°14.64 2°54.887 328 12.8 329 13.4
2010-05-19 05:47:44 51°14.655 2°54.871 326.8 13 327 13.3
2010-05-19 05:47:49 51°14.669 2°54.854 324.8 13.1 323 13.5
2010-05-19 05:47:54 51°14.684 2°54.836 321.7 13.2 322 13.6
2010-05-19 05:47:59 51°14.698 2°54.818 320.5 13.4 322 13.4
2010-05-19 05:48:04 51°14.714 2°54.801 320.9 13.5 325 13.4
2010-05-19 05:48:09 51°14.73 2°54.785 323 13.6 327 13.6
2010-05-19 05:48:14 51°14.746 2°54.769 325.2 13.7 330 13.5
2010-05-19 05:48:19 51°14.762 2°54.754 327 13.7 330 13.5
2010-05-19 05:48:24 51°14.779 2°54.739 327.7 13.8 330 13.6
2010-05-19 05:48:29 51°14.796 2°54.725 328.6 13.8 331 13.6
2010-05-19 05:48:34 51°14.813 2°54.71 328.7 13.9 330 13.4
2010-05-19 05:48:39 51°14.83 2°54.695 329 13.9 332 13.3
2010-05-19 05:48:44 51°14.846 2°54.679 329 13.8 329 13.5
2010-05-19 05:48:49 51°14.863 2°54.664 328.2 13.9 330 13.5
2010-05-19 05:48:54 51°14.879 2°54.648 327.4 13.8 328 13.3
2010-05-19 05:48:59 51°14.896 2°54.633 327.6 13.8 330 13.5
2010-05-19 05:49:04 51°14.912 2°54.615 327 13.8 327 13.6
2010-05-19 05:49:09 51°14.927 2°54.598 325.2 13.7 325 13.4
2010-05-19 05:49:14 51°14.942 2°54.579 322.3 13.6 321 11.7
2010-05-19 05:49:19 51°14.957 2°54.561 321 13.6 322 11.6
2010-05-19 05:49:24 51°14.971 2°54.541 319.6 13.5 319 11.6
2010-05-19 05:49:29 51°14.986 2°54.522 318.9 13.6 322 11.8
2010-05-19 05:49:34 51°15 2°54.503 319.4 13.6 321 11.6
2010-05-19 05:49:39 51°15.015 2°54.484 319.4 13.7 322 11.8
2010-05-19 05:49:44 51°15.03 2°54.465 319.4 13.7 321 11.7
2010-05-19 05:49:49 51°15.044 2°54.446 318.9 13.7 320 11.8
2010-05-19 05:49:54 51°15.059 2°54.426 318.2 13.8 321 11.8
2010-05-19 05:49:59 51°15.074 2°54.407 318.7 13.8 321 11.8
2010-05-19 05:50:04 51°15.089 2°54.388 318.7 13.8 320 11.8
2010-05-19 05:50:09 51°15.104 2°54.369 318.6 13.8 321 11.9
2010-05-19 05:50:14 51°15.118 2°54.349 318.6 13.8 320 12
2010-05-19 05:50:19 51°15.133 2°54.329 318.1 13.8 319 12
2010-05-19 05:50:24 51°15.147 2°54.309 317.7 13.8 318 12.2
2010-05-19 05:50:29 51°15.162 2°54.289 317.6 13.8 320 12
2010-05-19 05:50:34 51°15.176 2°54.269 318 13.8 319 12
2010-05-19 05:50:39 51°15.19 2°54.249 318.2 13.8 320 12
2010-05-19 05:50:44 51°15.205 2°54.229 318.3 13.8 320 12.1
2010-05-19 05:50:49 51°15.22 2°54.211 319 13.8 321 12.1
2010-05-19 05:50:54 51°15.235 2°54.192 320.6 13.8 321 12.1
2010-05-19 05:50:59 51°15.251 2°54.174 321.6 13.8 323 12.3
2010-05-19 05:51:04 51°15.266 2°54.156 322.3 13.8 324 12.3
2010-05-19 05:51:09 51°15.282 2°54.138 323.1 13.9 325 12.2
2010-05-19 05:51:14 51°15.298 2°54.121 323.7 13.8 325 12.2
2010-05-19 05:51:19 51°15.314 2°54.104 324.3 13.8 326 12.2
2010-05-19 05:51:24 51°15.33 2°54.087 325 13.9 326 12.3
2010-05-19 05:51:29 51°15.346 2°54.07 325.4 13.9 327 12.3
2010-05-19 05:51:34 51°15.362 2°54.054 325.5 13.8 327 12.2
2010-05-19 05:51:39 51°15.378 2°54.037 325.6 13.8 326 12.6
2010-05-19 05:51:44 51°15.394 2°54.02 325.6 13.8 326 12.4
2010-05-19 05:51:49 51°15.41 2°54.003 325.5 13.8 326 12.4
2010-05-19 05:51:54 51°15.425 2°53.985 324.5 13.8 324 12.6
2010-05-19 05:51:59 51°15.441 2°53.967 324 13.8 325 12.5
2010-05-19 05:52:03 51°15.453 2°53.952 323.3 13.8 323 12.5
2010-05-19 05:52:09 51°15.471 2°53.93 322.7 13.8 324 12.6
2010-05-19 05:52:14 51°15.486 2°53.912 322.2 13.8 322 12.6
2010-05-19 05:52:19 51°15.501 2°53.894 322 13.8 323 12.6
2010-05-19 05:52:24 51°15.516 2°53.875 321.9 13.8 322 12.6
2010-05-19 05:52:29 51°15.532 2°53.856 321.7 13.8 323 12.8
2010-05-19 05:52:34 51°15.547 2°53.838 321.9 13.8 322 12.8
2010-05-19 05:52:39 51°15.562 2°53.819 322 13.8 323 12.8
2010-05-19 05:52:44 51°15.577 2°53.8 322 13.8 322 12.8
2010-05-19 05:52:49 51°15.593 2°53.783 322.2 13.8 324 12.8
2010-05-19 05:52:54 51°15.608 2°53.764 322.3 13.8 323 13
2010-05-19 05:52:59 51°15.624 2°53.746 322.6 13.8 324 12.9
2010-05-19 05:53:04 51°15.639 2°53.728 322.6 13.8 324 13.1
2010-05-19 05:53:09 51°15.655 2°53.71 322.6 13.8 324 13
2010-05-19 05:53:14 51°15.671 2°53.692 322.5 13.8 324 13.1
2010-05-19 05:53:19 51°15.686 2°53.675 322.3 13.8 324 13
2010-05-19 05:53:24 51°15.702 2°53.657 322.3 13.8 324 13
2010-05-19 05:53:29 51°15.717 2°53.639 322.2 13.8 324 13.2
2010-05-19 05:53:34 51°15.733 2°53.621 322.2 13.8 324 13.2
2010-05-19 05:53:39 51°15.748 2°53.603 322.1 13.8 324 13.1
2010-05-19 05:53:44 51°15.764 2°53.585 321.8 13.8 324 13.1
2010-05-19 05:53:49 51°15.779 2°53.567 321.9 13.7 325 13.1
2010-05-19 05:53:54 51°15.795 2°53.55 322 13.8 324 13.3
2010-05-19 05:53:59 51°15.81 2°53.532 321.8 13.8 324 13.2
2010-05-19 05:54:04 51°15.826 2°53.515 322 13.8 326 13.2
2010-05-19 05:54:09 51°15.841 2°53.497 322.2 13.7 325 13.5
2010-05-19 05:54:14 51°15.858 2°53.482 324.5 13.8 330 13.3
2010-05-19 05:54:19 51°15.875 2°53.466 326 13.8 329 13.2
2010-05-19 05:54:24 51°15.892 2°53.453 328 13.9 333 13.2
2010-05-19 05:54:29 51°15.909 2°53.439 330.5 13.8 334 13.2
2010-05-19 05:54:34 51°15.927 2°53.427 332.5 13.9 337 13.2
2010-05-19 05:54:39 51°15.945 2°53.416 334.5 13.9 338 13.2
2010-05-19 05:54:44 51°15.963 2°53.405 335.9 14 339 13.2
2010-05-19 05:54:49 51°15.981 2°53.395 337.4 14 341 13.5
2010-05-19 05:54:54 51°16 2°53.385 338.3 14.1 342 13.3
2010-05-19 05:54:59 51°16.018 2°53.375 339 14 342 13.3
2010-05-19 05:55:04 51°16.037 2°53.366 340 14.1 343 13.5
2010-05-19 05:55:09 51°16.055 2°53.357 340.5 14.1 343 13.2
2010-05-19 05:55:14 51°16.074 2°53.348 340.6 14.1 343 13.3
2010-05-19 05:55:19 51°16.092 2°53.339 341.2 14.1 343 13.5
2010-05-19 05:55:24 51°16.111 2°53.329 341.1 14.1 343 13.3
2010-05-19 05:55:29 51°16.13 2°53.321 341 14.1 343 13.3
2010-05-19 05:55:34 51°16.148 2°53.312 341.1 14 343 13.4
2010-05-19 05:55:39 51°16.167 2°53.302 340.9 14.1 343 13.3
2010-05-19 05:55:44 51°16.185 2°53.293 340.8 14 343 13.6
2010-05-19 05:55:49 51°16.204 2°53.284 340.9 14.1 343 13.7
2010-05-19 05:55:54 51°16.223 2°53.274 340.7 14 342 13.5
2010-05-19 05:55:59 51°16.241 2°53.265 340.7 14 342 13.5
2010-05-19 05:56:04 51°16.26 2°53.256 340.7 14.1 342 13.5
2010-05-19 05:56:09 51°16.278 2°53.246 340 14 341 13.5
2010-05-19 05:56:14 51°16.297 2°53.237 339.9 14 342 13.5
2010-05-19 05:56:19 51°16.315 2°53.226 339.2 14.1 340 13.5
2010-05-19 05:56:24 51°16.334 2°53.217 338.9 14.1 341 13.5
2010-05-19 05:56:29 51°16.352 2°53.205 338.3 14.1 340 13.6
2010-05-19 05:56:34 51°16.371 2°53.195 338.3 14.1 340 13.5
2010-05-19 05:56:39 51°16.389 2°53.184 338 14.1 339 13.5
2010-05-19 05:56:43 51°16.404 2°53.175 337.6 14.1 340 13.5
2010-05-19 05:56:49 51°16.426 2°53.162 337.8 14.1 339 13.4
2010-05-19 05:56:54 51°16.444 2°53.152 337.9 14.1 340 13.4
2010-05-19 05:56:59 51°16.462 2°53.141 338.1 14.1 340 13.6
2010-05-19 05:57:04 51°16.481 2°53.131 337.9 14.1 340 13.6
2010-05-19 05:57:09 51°16.499 2°53.12 338.3 14.1 340 13.5
2010-05-19 05:57:14 51°16.517 2°53.109 338.2 14.1 340 13.4
2010-05-19 05:57:19 51°16.536 2°53.098 338.1 14.1 340 13.3
2010-05-19 05:57:24 51°16.554 2°53.088 338.1 14.2 340 13.3
2010-05-19 05:57:29 51°16.573 2°53.077 338.2 14.1 340 13
2010-05-19 05:57:34 51°16.591 2°53.067 338.3 14.2 340 13
2010-05-19 05:57:39 51°16.61 2°53.056 338.4 14.2 340 13
2010-05-19 05:57:44 51°16.628 2°53.046 338.4 14.2 340 13
2010-05-19 05:57:49 51°16.647 2°53.034 337.9 14.2 340 12.8
2010-05-19 05:57:54 51°16.665 2°53.024 337.7 14.2 341 12.8
2010-05-19 05:57:59 51°16.684 2°53.014 337.7 14.2 340 12.7
2010-05-19 05:58:04 51°16.703 2°53.003 337.7 14.2 341 12.6
2010-05-19 05:58:09 51°16.721 2°52.992 337.6 14.2 340 12.7
2010-05-19 05:58:14 51°16.74 2°52.982 337.6 14.2 340 12.5
2010-05-19 05:58:19 51°16.758 2°52.971 337.5 14.2 340 12.3
2010-05-19 05:58:24 51°16.777 2°52.96 337.4 14.2 340 11.9
2010-05-19 05:58:29 51°16.795 2°52.95 337.5 14.1 340 11.6
2010-05-19 05:58:34 51°16.814 2°52.939 337.6 14.1 340 11.1
2010-05-19 05:58:39 51°16.832 2°52.929 337.5 14.1 340 10.7
2010-05-19 05:58:44 51°16.851 2°52.918 337.4 14 340 10.5
2010-05-19 05:58:49 51°16.869 2°52.907 337.3 14 340 10.5
2010-05-19 05:58:54 51°16.887 2°52.896 337.2 14 340 10.5
2010-05-19 05:58:59 51°16.905 2°52.886 337.2 14.1 340 10.5
2010-05-19 05:59:04 51°16.923 2°52.874 337.2 14.1 339 10.8
2010-05-19 05:59:09 51°16.942 2°52.863 336.9 14.2 339 10.6
2010-05-19 05:59:14 51°16.96 2°52.851 337 14.2 339 10.9
2010-05-19 05:59:19 51°16.978 2°52.84 337.4 14.3 340 10.9
2010-05-19 05:59:24 51°16.997 2°52.829 337.7 14.3 340 11.1
2010-05-19 05:59:29 51°17.016 2°52.819 337.9 14.4 341 11
2010-05-19 05:59:34 51°17.035 2°52.809 338.3 14.4 340 11.6
2010-05-19 05:59:39 51°17.054 2°52.798 338.3 14.4 341 11.4
2010-05-19 05:59:44 51°17.073 2°52.787 337.9 14.4 339 11.5
2010-05-19 05:59:49 51°17.091 2°52.776 337.6 14.4 340 11.4
2010-05-19 05:59:54 51°17.11 2°52.764 337.2 14.4 339 11.4
2010-05-19 05:59:59 51°17.129 2°52.753 337.2 14.4 339 11.5
2010-05-19 06:00:04 51°17.147 2°52.741 337.1 14.4 338 11.4
2010-05-19 06:00:09 51°17.166 2°52.73 337 14.4 340 11.1
2010-05-19 06:00:14 51°17.184 2°52.719 337.3 14.3 339 11
2010-05-19 06:00:19 51°17.203 2°52.708 337.6 14.3 340 11.2
2010-05-19 06:00:24 51°17.221 2°52.697 337.7 14.3 339 11.4
2010-05-19 06:00:29 51°17.24 2°52.686 337.6 14.3 339 11.5
2010-05-19 06:00:34 51°17.259 2°52.674 337.4 14.3 339 11.4
2010-05-19 06:00:39 51°17.277 2°52.663 337.5 14.3 339 11.3
2010-05-19 06:00:44 51°17.295 2°52.651 337.2 14.3 339 11.5
2010-05-19 06:00:49 51°17.314 2°52.64 337.2 14.3 339 11.4
2010-05-19 06:00:54 51°17.332 2°52.628 337.2 14.3 339 11.6
2010-05-19 06:00:59 51°17.351 2°52.616 337.4 14.3 339 11.6
2010-05-19 06:01:04 51°17.369 2°52.605 337.5 14.3 339 11.7
2010-05-19 06:01:09 51°17.388 2°52.593 337 14.3 339 11.4
2010-05-19 06:01:14 51°17.406 2°52.582 337.2 14.3 339 11.6
2010-05-19 06:01:19 51°17.425 2°52.572 339 14.3 341 11.8
2010-05-19 06:01:24 51°17.444 2°52.562 340.5 14.3 342 11.8
2010-05-19 06:01:29 51°17.463 2°52.554 341.6 14.3 343 11.8
2010-05-19 06:01:34 51°17.482 2°52.545 342.8 14.3 345 12
2010-05-19 06:01:39 51°17.501 2°52.537 343.6 14.3 345 11.8
2010-05-19 06:01:44 51°17.521 2°52.532 346.7 14.4 351 11.9
2010-05-19 06:01:49 51°17.541 2°52.526 348.4 14.4 349 11.9
2010-05-19 06:01:54 51°17.56 2°52.523 350.2 14.3 353 11.6
2010-05-19 06:01:59 51°17.58 2°52.518 351.6 14.3 352 11.8
2010-05-19 06:02:04 51°17.6 2°52.515 352.8 14.4 354 11.9
2010-05-19 06:02:09 51°17.62 2°52.511 353.8 14.3 354 12.1
2010-05-19 06:02:14 51°17.64 2°52.509 354.5 14.4 355 11.8
2010-05-19 06:02:19 51°17.66 2°52.507 355.3 14.4 356 11.9
2010-05-19 06:02:24 51°17.679 2°52.505 355.6 14.4 356 11.8
2010-05-19 06:02:29 51°17.699 2°52.503 356.2 14.3 356 12
2010-05-19 06:02:34 51°17.719 2°52.501 356.5 14.4 356 11.9
2010-05-19 06:02:39 51°17.739 2°52.499 356.7 14.4 356 11.5
2010-05-19 06:02:44 51°17.759 2°52.497 356.5 14.4 356 11.6
2010-05-19 06:02:49 51°17.779 2°52.494 356.3 14.4 356 12
2010-05-19 06:02:54 51°17.799 2°52.492 356.3 14.4 356 11.8
2010-05-19 06:02:59 51°17.819 2°52.49 355.8 14.4 355 11.8
2010-05-19 06:03:04 51°17.839 2°52.488 355.8 14.4 356 11.8
2010-05-19 06:03:09 51°17.859 2°52.485 355.7 14.4 355 12.1
2010-05-19 06:03:14 51°17.879 2°52.483 355.8 14.4 356 11.9
2010-05-19 06:03:19 51°17.899 2°52.481 356.1 14.4 356 12.1
2010-05-19 06:03:23 51°17.915 2°52.479 356.2 14.5 356 12
2010-05-19 06:03:29 51°17.939 2°52.476 356.3 14.4 356 11.9
2010-05-19 06:03:34 51°17.959 2°52.474 355.7 14.4 355 11.7
2010-05-19 06:03:39 51°17.979 2°52.473 356.8 14.4 358 12.1
2010-05-19 06:03:43 51°17.995 2°52.472 357.7 14.4 357 12.1
2010-05-19 06:03:49 51°18.019 2°52.471 358.6 14.5 359 11.9
2010-05-19 06:03:54 51°18.039 2°52.471 359.2 14.4 359 12.1
2010-05-19 06:03:59 51°18.059 2°52.471 359.9 14.5 -999 12.2
2010-05-19 06:04:03 51°18.075 2°52.471 0.1 14.5 359 11.9
2010-05-19 06:04:09 51°18.099 2°52.472 0.6 14.4 1 12.4
2010-05-19 06:04:14 51°18.119 2°52.472 0.8 14.4 359 12.2
2010-05-19 06:04:19 51°18.139 2°52.472 0.5 14.5 -999 12.2
2010-05-19 06:04:24 51°18.159 2°52.472 0.4 14.4 -999 12.2
2010-05-19 06:04:29 51°18.179 2°52.472 0.4 14.4 -999 12.3
2010-05-19 06:04:34 51°18.199 2°52.472 0.1 14.5 -999 12.4
2010-05-19 06:04:39 51°18.219 2°52.472 0.3 14.5 -999 12.3
2010-05-19 06:04:44 51°18.239 2°52.472 0.6 14.5 -999 12.3
2010-05-19 06:04:49 51°18.259 2°52.472 0.8 14.5 -999 12.4
2010-05-19 06:04:54 51°18.279 2°52.472 0.3 14.5 -999 12.1
2010-05-19 06:04:59 51°18.3 2°52.472 0.3 14.4 -999 12.4
2010-05-19 06:05:04 51°18.32 2°52.472 0.1 14.4 -999 12.5
2010-05-19 06:05:09 51°18.34 2°52.472 0.2 14.4 -999 12.5
2010-05-19 06:05:14 51°18.36 2°52.472 0.2 14.4 -999 12.6
2010-05-19 06:05:19 51°18.38 2°52.472 0.1 14.4 359 12.5
2010-05-19 06:05:23 51°18.396 2°52.472 359.8 14.5 359 12.4
2010-05-19 06:05:29 51°18.42 2°52.472 -999 14.4 -999 12.8
2010-05-19 06:05:34 51°18.44 2°52.471 0.1 14.4 -999 12.6
2010-05-19 06:05:39 51°18.46 2°52.472 0.3 14.4 -999 12.6
2010-05-19 06:05:43 51°18.476 2°52.471 0.3 14.5 -999 12.7
2010-05-19 06:05:49 51°18.5 2°52.472 0.3 14.5 -999 12.9
2010-05-19 06:05:54 51°18.52 2°52.471 359.8 14.4 359 12.9
2010-05-19 06:05:59 51°18.54 2°52.471 359.8 14.4 -999 13.1
2010-05-19 06:06:03 51°18.556 2°52.471 359.8 14.5 -999 13
2010-05-19 06:06:09 51°18.58 2°52.473 1 14.5 3 13
2010-05-19 06:06:14 51°18.6 2°52.475 3 14.5 4 13.3
2010-05-19 06:06:19 51°18.621 2°52.479 5 14.6 7 13
2010-05-19 06:06:24 51°18.641 2°52.483 6.1 14.5 6 13.1
2010-05-19 06:06:29 51°18.661 2°52.488 7.3 14.6 9 13.3
2010-05-19 06:06:34 51°18.681 2°52.492 8.1 14.5 8 13.1
2010-05-19 06:06:39 51°18.701 2°52.498 9.1 14.6 10 13.2
2010-05-19 06:06:44 51°18.72 2°52.503 9.7 14.6 9 13.2
2010-05-19 06:06:49 51°18.74 2°52.51 10.1 14.6 11 13.3
2010-05-19 06:06:54 51°18.76 2°52.516 10.8 14.6 11 13.4
2010-05-19 06:06:59 51°18.78 2°52.522 11 14.6 11 13.5
2010-05-19 06:07:04 51°18.8 2°52.529 11.1 14.6 11 13.8
2010-05-19 06:07:09 51°18.82 2°52.535 11.1 14.6 11 13.5
2010-05-19 06:07:14 51°18.84 2°52.541 11 14.6 11 13.7
2010-05-19 06:07:19 51°18.86 2°52.547 10.9 14.6 10 13.6
2010-05-19 06:07:24 51°18.88 2°52.553 10.7 14.6 10 13.9
2010-05-19 06:07:29 51°18.9 2°52.558 10.5 14.5 10 13.9
2010-05-19 06:07:34 51°18.92 2°52.564 10.3 14.6 10 14
2010-05-19 06:07:39 51°18.939 2°52.57 10.3 14.5 10 13.9
2010-05-19 06:07:43 51°18.955 2°52.574 10.2 14.5 10 14.2
2010-05-19 06:07:49 51°18.979 2°52.581 10.5 14.5 10 14
2010-05-19 06:07:54 51°18.999 2°52.587 10.3 14.5 10 14.2
2010-05-19 06:07:59 51°19.019 2°52.593 10.3 14.5 11 14.4
2010-05-19 06:08:03 51°19.035 2°52.597 10.4 14.5 10 14.4
2010-05-19 06:08:09 51°19.059 2°52.604 10 14.5 10 14.6
2010-05-19 06:08:14 51°19.079 2°52.609 10.1 14.5 10 14.4
2010-05-19 06:08:19 51°19.098 2°52.615 10.1 14.6 10 14.5
2010-05-19 06:08:23 51°19.114 2°52.619 10.2 14.6 10 14.6
2010-05-19 06:08:29 51°19.138 2°52.626 10.2 14.6 10 14.8
2010-05-19 06:08:34 51°19.158 2°52.632 10.2 14.6 10 14.9
2010-05-19 06:08:39 51°19.178 2°52.637 10 14.6 10 14.8
2010-05-19 06:08:44 51°19.198 2°52.642 9.7 14.6 9 15
2010-05-19 06:08:49 51°19.218 2°52.648 9.7 14.6 10 15.1
2010-05-19 06:08:54 51°19.238 2°52.653 9.9 14.6 10 15.3
2010-05-19 06:08:59 51°19.258 2°52.658 9.8 14.6 9 15.3
2010-05-19 06:09:04 51°19.278 2°52.664 9.5 14.6 9 15.3
2010-05-19 06:09:09 51°19.298 2°52.668 9.5 14.6 9 15.4
2010-05-19 06:09:14 51°19.318 2°52.674 9.4 14.6 9 15.3
2010-05-19 06:09:19 51°19.338 2°52.679 9.6 14.6 9 15.6
2010-05-19 06:09:24 51°19.358 2°52.684 9.5 14.6 9 15.7
2010-05-19 06:09:29 51°19.378 2°52.69 9.6 14.6 10 15.7
2010-05-19 06:09:34 51°19.398 2°52.695 9.5 14.6 9 15.8
2010-05-19 06:09:39 51°19.418 2°52.7 9.4 14.6 9 16
2010-05-19 06:09:43 51°19.434 2°52.704 9.5 14.6 10 15.9
2010-05-19 06:09:49 51°19.458 2°52.711 9.8 14.6 10 16
2010-05-19 06:09:54 51°19.478 2°52.716 9.6 14.5 9 16.1
2010-05-19 06:09:59 51°19.497 2°52.722 10 14.6 10 16.1
2010-05-19 06:10:03 51°19.514 2°52.726 10.1 14.6 9 16.2
2010-05-19 06:10:09 51°19.537 2°52.733 10.1 14.5 10 16.4
2010-05-19 06:10:14 51°19.557 2°52.737 9.6 14.5 9 16.4
2010-05-19 06:10:19 51°19.577 2°52.743 9.5 14.6 10 16.5
2010-05-19 06:10:23 51°19.593 2°52.747 9.5 14.5 9 16.4
2010-05-19 06:10:29 51°19.617 2°52.754 9.5 14.5 10 16.7
2010-05-19 06:10:34 51°19.637 2°52.759 9.6 14.5 9 16.7
2010-05-19 06:10:39 51°19.656 2°52.764 9.4 14.5 9 16.7
2010-05-19 06:10:43 51°19.672 2°52.769 9.4 14.5 10 16.6
2010-05-19 06:10:49 51°19.696 2°52.774 9.1 14.4 9 16.9
2010-05-19 06:10:54 51°19.716 2°52.78 9.3 14.6 10 17.1
2010-05-19 06:10:59 51°19.736 2°52.785 9.3 14.5 9 16.7
2010-05-19 06:11:03 51°19.752 2°52.79 9.5 14.5 10 16.7
2010-05-19 06:11:09 51°19.775 2°52.796 9.6 14.4 10 17
2010-05-19 06:11:14 51°19.795 2°52.802 9.5 14.4 10 17.2
2010-05-19 06:11:19 51°19.815 2°52.807 9.5 14.4 10 17.2
2010-05-19 06:11:24 51°19.835 2°52.812 9.5 14.4 10 17.3
2010-05-19 06:11:29 51°19.854 2°52.818 9.4 14.4 9 17.3
2010-05-19 06:11:34 51°19.874 2°52.823 9.3 14.4 10 17.4
2010-05-19 06:11:39 51°19.894 2°52.828 9.4 14.4 10 17.4
2010-05-19 06:11:44 51°19.913 2°52.833 9.5 14.5 10 17.2
2010-05-19 06:11:49 51°19.933 2°52.839 9.4 14.4 9 17.5
2010-05-19 06:11:54 51°19.953 2°52.844 9.2 14.4 9 17.7
2010-05-19 06:11:59 51°19.973 2°52.849 8.8 14.4 9 17.5
2010-05-19 06:12:04 51°19.992 2°52.854 8.8 14.3 9 17.5
2010-05-19 06:12:09 51°20.012 2°52.859 9 14.4 9 17.5
2010-05-19 06:12:14 51°20.031 2°52.864 9.3 14.3 10 17.3
2010-05-19 06:12:19 51°20.051 2°52.869 9.5 14.4 9 17.6
2010-05-19 06:12:24 51°20.071 2°52.874 9.2 14.3 9 17.3
2010-05-19 06:12:29 51°20.09 2°52.88 9.4 14.3 9 17.8
2010-05-19 06:12:34 51°20.11 2°52.885 9.4 14.4 9 17.8
2010-05-19 06:12:39 51°20.13 2°52.89 9.2 14.3 9 17.6
2010-05-19 06:12:44 51°20.149 2°52.895 9.1 14.3 9 17.5
2010-05-19 06:12:49 51°20.169 2°52.899 9.1 14.3 9 17.4
2010-05-19 06:12:54 51°20.188 2°52.904 8.9 14.3 9 17.7
2010-05-19 06:12:59 51°20.208 2°52.91 9.3 14.3 9 17.6
2010-05-19 06:13:04 51°20.227 2°52.914 9.3 14.3 9 17.4
2010-05-19 06:13:09 51°20.247 2°52.92 9.4 14.2 9 17.6
2010-05-19 06:13:14 51°20.266 2°52.925 9.4 14.2 9 17.6
2010-05-19 06:13:19 51°20.286 2°52.93 9.5 14.2 10 17.7
2010-05-19 06:13:24 51°20.305 2°52.934 9.2 14.2 8 17.6
2010-05-19 06:13:29 51°20.325 2°52.94 9.3 14.2 10 17.8
2010-05-19 06:13:34 51°20.344 2°52.944 9.4 14.2 8 17.6
2010-05-19 06:13:39 51°20.364 2°52.95 9.3 14.2 10 17.7
2010-05-19 06:13:44 51°20.383 2°52.955 9.4 14.2 9 17.9
2010-05-19 06:13:49 51°20.402 2°52.96 9.4 14.1 9 17.6
2010-05-19 06:13:54 51°20.421 2°52.966 10.6 14.2 12 17.7
2010-05-19 06:13:59 51°20.441 2°52.973 12 14.2 12 17.7
2010-05-19 06:14:04 51°20.46 2°52.98 13 14.2 13 17.5
2010-05-19 06:14:09 51°20.479 2°52.987 13.7 14.2 13 17.7
2010-05-19 06:14:14 51°20.499 2°52.994 14.4 14.2 14 17.6
2010-05-19 06:14:19 51°20.517 2°53.003 15 14.2 15 17.9
2010-05-19 06:14:23 51°20.533 2°53.009 15.2 14.2 14 17.7
2010-05-19 06:14:29 51°20.556 2°53.019 15.6 14.2 16 17.5
2010-05-19 06:14:34 51°20.575 2°53.027 15.8 14.2 14 17.6
2010-05-19 06:14:39 51°20.594 2°53.035 15.9 14.2 16 17.7
2010-05-19 06:14:44 51°20.613 2°53.043 16.3 14.2 15 17.7
2010-05-19 06:14:49 51°20.632 2°53.052 16.1 14.2 15 17.7
2010-05-19 06:14:54 51°20.651 2°53.06 16 14.2 15 17.8
2010-05-19 06:14:59 51°20.67 2°53.067 15.7 14.2 14 17.8
2010-05-19 06:15:04 51°20.689 2°53.076 15.9 14.2 15 17.8
2010-05-19 06:15:09 51°20.708 2°53.084 15.9 14.3 14 17.8
2010-05-19 06:15:14 51°20.727 2°53.092 15.9 14.3 15 17.7
2010-05-19 06:15:19 51°20.747 2°53.1 16 14.3 15 17.7
2010-05-19 06:15:24 51°20.766 2°53.109 15.8 14.3 15 17.7
2010-05-19 06:15:29 51°20.785 2°53.117 15.6 14.3 15 17.6
2010-05-19 06:15:34 51°20.804 2°53.125 16 14.2 16 17.7
2010-05-19 06:15:39 51°20.823 2°53.133 16.3 14.3 15 17.7
2010-05-19 06:15:44 51°20.842 2°53.141 15.9 14.3 15 17.6
2010-05-19 06:15:49 51°20.861 2°53.149 15.6 14.3 14 17.6
2010-05-19 06:15:54 51°20.88 2°53.157 15.5 14.3 15 17.4
2010-05-19 06:15:59 51°20.899 2°53.165 15.8 14.3 15 17.5
2010-05-19 06:16:04 51°20.919 2°53.173 15.8 14.3 15 17.8
2010-05-19 06:16:09 51°20.938 2°53.181 15.4 14.3 14 17.4
2010-05-19 06:16:14 51°20.957 2°53.189 15.4 14.3 15 17.5
2010-05-19 06:16:19 51°20.976 2°53.196 15.4 14.3 14 17.4
2010-05-19 06:16:24 51°20.995 2°53.204 15.3 14.2 14 17.8
2010-05-19 06:16:29 51°21.015 2°53.212 15.6 14.3 14 17.4
2010-05-19 06:16:34 51°21.034 2°53.22 15.6 14.3 13 17.3
2010-05-19 06:16:39 51°21.053 2°53.227 15.3 14.3 14 17.3
2010-05-19 06:16:43 51°21.069 2°53.233 15.4 14.3 14 17.5
2010-05-19 06:16:49 51°21.092 2°53.243 15.6 14.3 15 17.2
2010-05-19 06:16:54 51°21.111 2°53.251 15.6 14.3 14 17.3
2010-05-19 06:16:59 51°21.13 2°53.259 15.8 14.4 15 17.1
2010-05-19 06:17:03 51°21.146 2°53.265 15.5 14.3 14 17.7
2010-05-19 06:17:09 51°21.169 2°53.275 15.8 14.4 15 17.4
2010-05-19 06:17:14 51°21.188 2°53.283 15.7 14.4 14 17.4
2010-05-19 06:17:19 51°21.208 2°53.291 15.4 14.3 15 17
2010-05-19 06:17:24 51°21.227 2°53.299 15.7 14.4 15 17.2
2010-05-19 06:17:29 51°21.246 2°53.307 15.6 14.3 14 17.2
2010-05-19 06:17:34 51°21.265 2°53.315 15.5 14.4 16 16.9
2010-05-19 06:17:39 51°21.285 2°53.324 15.9 14.3 15 16.5
2010-05-19 06:17:44 51°21.303 2°53.334 18.1 14.4 19 17.2
2010-05-19 06:17:49 51°21.323 2°53.343 18.7 14.4 17 17
2010-05-19 06:17:54 51°21.341 2°53.355 20.2 14.4 21 17.2
2010-05-19 06:17:59 51°21.36 2°53.366 20.9 14.4 19 17.2
2010-05-19 06:18:04 51°21.379 2°53.378 21.6 14.4 21 17.4
2010-05-19 06:18:09 51°21.398 2°53.389 22.3 14.4 21 17.1
2010-05-19 06:18:14 51°21.416 2°53.402 23.6 14.4 24 17.2
2010-05-19 06:18:19 51°21.434 2°53.415 24.8 14.4 24 17.3
2010-05-19 06:18:24 51°21.453 2°53.429 25.6 14.5 25 17.3
2010-05-19 06:18:29 51°21.47 2°53.443 26.9 14.4 27 17.4
2010-05-19 06:18:34 51°21.489 2°53.457 27.5 14.5 26 17.7
2010-05-19 06:18:39 51°21.507 2°53.472 27.8 14.5 27 17.6
2010-05-19 06:18:44 51°21.524 2°53.487 28.4 14.4 27 17.7
2010-05-19 06:18:49 51°21.542 2°53.502 28.7 14.5 28 17.8
2010-05-19 06:18:54 51°21.56 2°53.516 28.9 14.4 27 17.7
2010-05-19 06:18:59 51°21.578 2°53.53 28.6 14.5 27 18
2010-05-19 06:19:04 51°21.595 2°53.545 28.5 14.5 27 18
2010-05-19 06:19:09 51°21.613 2°53.559 28.3 14.5 27 17.7
2010-05-19 06:19:14 51°21.631 2°53.574 28.4 14.4 27 17.8
2010-05-19 06:19:19 51°21.649 2°53.589 28.4 14.4 27 18
2010-05-19 06:19:24 51°21.667 2°53.603 28.4 14.5 27 18.2
2010-05-19 06:19:29 51°21.685 2°53.618 28.5 14.4 27 18.4
2010-05-19 06:19:34 51°21.703 2°53.633 28.6 14.5 27 18.5
2010-05-19 06:19:39 51°21.721 2°53.647 28.4 14.5 27 18.5
2010-05-19 06:19:44 51°21.739 2°53.661 28.3 14.5 27 18.7
2010-05-19 06:19:49 51°21.757 2°53.676 28.1 14.5 27 19
2010-05-19 06:19:54 51°21.775 2°53.69 27.8 14.6 26 19.1
2010-05-19 06:19:59 51°21.793 2°53.705 28 14.5 27 19
2010-05-19 06:20:04 51°21.811 2°53.719 28 14.5 26 19.3
2010-05-19 06:20:09 51°21.829 2°53.734 27.9 14.5 27 19.2
2010-05-19 06:20:14 51°21.847 2°53.748 27.7 14.5 26 19.3
2010-05-19 06:20:19 51°21.865 2°53.762 27.7 14.5 27 19.6
2010-05-19 06:20:24 51°21.883 2°53.777 27.9 14.5 27 19.9
2010-05-19 06:20:29 51°21.901 2°53.791 27.9 14.5 26 20
2010-05-19 06:20:34 51°21.919 2°53.805 28.1 14.5 27 20
2010-05-19 06:20:39 51°21.937 2°53.819 27.7 14.5 25 20
2010-05-19 06:20:44 51°21.955 2°53.833 27.6 14.4 26 20.6
2010-05-19 06:20:49 51°21.973 2°53.847 27.6 14.5 26 20.6
2010-05-19 06:20:54 51°21.991 2°53.862 27.7 14.5 26 20.5
2010-05-19 06:20:59 51°22.009 2°53.876 27.9 14.5 27 20.5
2010-05-19 06:21:03 51°22.023 2°53.887 27.7 14.4 25 20.7
2010-05-19 06:21:09 51°22.045 2°53.904 27.7 14.5 26 20.8
2010-05-19 06:21:14 51°22.063 2°53.918 27.5 14.4 26 20.5
2010-05-19 06:21:19 51°22.081 2°53.932 27.6 14.4 26 20.5
2010-05-19 06:21:23 51°22.095 2°53.943 27.7 14.4 26 20.4
2010-05-19 06:21:29 51°22.117 2°53.958 26.4 14.4 24 20.2
2010-05-19 06:21:34 51°22.136 2°53.971 25.3 14.4 22 20.1
2010-05-19 06:21:39 51°22.154 2°53.982 23.7 14.4 21 20.3
2010-05-19 06:21:43 51°22.169 2°53.991 22.7 14.4 21 20.5
2010-05-19 06:21:49 51°22.192 2°54.004 21.7 14.5 19 20.5
2010-05-19 06:21:54 51°22.211 2°54.014 20.4 14.3 18 20.4
2010-05-19 06:21:59 51°22.23 2°54.023 18.6 14.4 16 20.8
2010-05-19 06:22:04 51°22.25 2°54.032 17.7 14.4 17 20.7
2010-05-19 06:22:09 51°22.269 2°54.039 16.5 14.4 14 20.9
2010-05-19 06:22:14 51°22.288 2°54.048 15.9 14.4 15 20.8
2010-05-19 06:22:19 51°22.308 2°54.055 15 14.4 13 20.7
2010-05-19 06:22:24 51°22.327 2°54.063 14.6 14.5 14 21
2010-05-19 06:22:29 51°22.347 2°54.07 13.9 14.5 12 20.8
2010-05-19 06:22:34 51°22.367 2°54.077 13.1 14.5 13 20.6
2010-05-19 06:22:39 51°22.387 2°54.081 11 14.4 9 21.1
2010-05-19 06:22:44 51°22.407 2°54.087 9.8 14.5 10 21.1
2010-05-19 06:22:49 51°22.426 2°54.091 8.4 14.4 7 21.2
2010-05-19 06:22:54 51°22.446 2°54.095 7.4 14.3 7 21.7
2010-05-19 06:22:59 51°22.466 2°54.098 6.7 14.4 6 21.6
2010-05-19 06:23:03 51°22.482 2°54.101 6.1 14.4 6 22
2010-05-19 06:23:09 51°22.506 2°54.104 5.3 14.4 5 22.5
2010-05-19 06:23:14 51°22.526 2°54.107 4.9 14.4 5 22.7
2010-05-19 06:23:19 51°22.546 2°54.109 4.6 14.5 5 22.8
2010-05-19 06:23:23 51°22.562 2°54.111 4.3 14.4 4 23.3
2010-05-19 06:23:29 51°22.586 2°54.114 4.4 14.5 4 23.3
2010-05-19 06:23:34 51°22.606 2°54.117 4 14.4 4 23.4
2010-05-19 06:23:39 51°22.626 2°54.119 3.9 14.4 4 23.7
2010-05-19 06:23:43 51°22.642 2°54.12 3.9 14.4 4 24
2010-05-19 06:23:49 51°22.666 2°54.123 4.3 14.4 4 24
2010-05-19 06:23:54 51°22.686 2°54.126 4.4 14.4 4 23.8
2010-05-19 06:23:59 51°22.706 2°54.128 4.8 14.4 4 24
2010-05-19 06:24:03 51°22.722 2°54.13 4.8 14.4 4 24
2010-05-19 06:24:09 51°22.746 2°54.133 4.5 14.4 4 24
2010-05-19 06:24:14 51°22.766 2°54.136 4.6 14.5 4 23.8
2010-05-19 06:24:19 51°22.786 2°54.138 4.6 14.5 4 23.6
2010-05-19 06:24:23 51°22.803 2°54.141 5.1 14.5 5 23.8
2010-05-19 06:24:29 51°22.827 2°54.143 5.2 14.5 3 23.5
2010-05-19 06:24:34 51°22.847 2°54.145 4.5 14.5 4 22.9
2010-05-19 06:24:39 51°22.867 2°54.148 5 14.6 5 21.5
2010-05-19 06:24:43 51°22.883 2°54.15 5.6 14.6 6 20.8
2010-05-19 06:24:49 51°22.907 2°54.154 5.7 14.6 5 22.9
2010-05-19 06:24:54 51°22.927 2°54.157 5.6 14.5 6 22.8
2010-05-19 06:24:59 51°22.947 2°54.16 5.6 14.5 5 23.3
2010-05-19 06:25:04 51°22.968 2°54.163 5.4 14.6 5 23.3
2010-05-19 06:25:09 51°22.988 2°54.167 5.7 14.6 6 22.1
2010-05-19 06:25:14 51°23.008 2°54.169 5.7 14.6 5 22.8
2010-05-19 06:25:19 51°23.028 2°54.173 5.6 14.6 6 23.6
2010-05-19 06:25:23 51°23.044 2°54.175 5.6 14.6 6 23.2
2010-05-19 06:25:29 51°23.068 2°54.18 5.7 14.6 6 22.7
2010-05-19 06:25:34 51°23.088 2°54.183 6 14.7 7 22.6
2010-05-19 06:25:39 51°23.109 2°54.186 5.9 14.7 6 21.3
2010-05-19 06:25:44 51°23.129 2°54.19 5.9 14.6 6 22.4
2010-05-19 06:25:49 51°23.149 2°54.193 5.7 14.7 5 22.5
2010-05-19 06:25:54 51°23.169 2°54.196 5.4 14.7 6 22
2010-05-19 06:25:59 51°23.19 2°54.199 5.3 14.7 6 21.3
2010-05-19 06:26:04 51°23.21 2°54.203 6 14.7 6 21.6
2010-05-19 06:26:09 51°23.23 2°54.206 5.8 14.7 5 20.9
2010-05-19 06:26:14 51°23.25 2°54.21 5.8 14.7 6 20.6
2010-05-19 06:26:19 51°23.271 2°54.213 5.6 14.7 6 21.4
2010-05-19 06:26:24 51°23.291 2°54.216 5.6 14.7 6 21
2010-05-19 06:26:29 51°23.311 2°54.219 5.3 14.7 5 19.9
2010-05-19 06:26:34 51°23.331 2°54.222 5.5 14.7 6 19.6
2010-05-19 06:26:39 51°23.352 2°54.225 5.5 14.7 5 21.5
2010-05-19 06:26:44 51°23.372 2°54.229 5.6 14.7 6 21
2010-05-19 06:26:49 51°23.392 2°54.232 5.7 14.7 6 20.3
2010-05-19 06:26:54 51°23.412 2°54.236 5.8 14.6 6 21.1
2010-05-19 06:26:59 51°23.433 2°54.239 5.8 14.6 6 21.3
2010-05-19 06:27:04 51°23.453 2°54.243 6.3 14.6 7 20.9
2010-05-19 06:27:09 51°23.473 2°54.247 6.2 14.7 7 21.1
2010-05-19 06:27:14 51°23.493 2°54.25 6.2 14.7 6 20.4
2010-05-19 06:27:19 51°23.514 2°54.254 6.1 14.7 6 21.6
2010-05-19 06:27:24 51°23.534 2°54.258 6 14.7 6 21.7
2010-05-19 06:27:29 51°23.554 2°54.261 6 14.7 7 21.6
2010-05-19 06:27:34 51°23.575 2°54.264 6 14.6 6 20.7
2010-05-19 06:27:39 51°23.595 2°54.268 6 14.6 7 21.7
2010-05-19 06:27:44 51°23.615 2°54.271 5.8 14.5 5 21.9
2010-05-19 06:27:49 51°23.635 2°54.274 5.9 14.7 6 21.8
2010-05-19 06:27:54 51°23.655 2°54.277 5.8 14.6 5 21.5
2010-05-19 06:27:59 51°23.675 2°54.28 5.7 14.6 6 21.7
2010-05-19 06:28:03 51°23.691 2°54.282 5.9 14.5 5 21.4
2010-05-19 06:28:09 51°23.715 2°54.287 6.2 14.5 6 21.5
2010-05-19 06:28:14 51°23.735 2°54.29 6.1 14.6 6 21
2010-05-19 06:28:19 51°23.755 2°54.294 6.4 14.6 7 21.9
2010-05-19 06:28:24 51°23.775 2°54.296 6.3 14.6 5 21.5
2010-05-19 06:28:29 51°23.796 2°54.3 6.2 14.6 6 21.8
2010-05-19 06:28:34 51°23.816 2°54.302 5.7 14.5 4 21.7
2010-05-19 06:28:39 51°23.836 2°54.304 4.9 14.5 4 21.3
2010-05-19 06:28:44 51°23.856 2°54.305 4.2 14.6 3 20.8
2010-05-19 06:28:49 51°23.876 2°54.307 3.7 14.5 3 22.3
2010-05-19 06:28:54 51°23.896 2°54.309 3.1 14.5 2 22.3
2010-05-19 06:28:59 51°23.916 2°54.31 3.1 14.5 2 22.1
2010-05-19 06:29:04 51°23.937 2°54.311 2.5 14.5 1 21.9
2010-05-19 06:29:09 51°23.957 2°54.312 2.7 14.5 2 21.8
2010-05-19 06:29:14 51°23.977 2°54.313 2.9 14.5 2 21.4
2010-05-19 06:29:19 51°23.997 2°54.315 2.9 14.5 3 21.7
2010-05-19 06:29:24 51°24.017 2°54.315 3 14.5 2 22.5
2010-05-19 06:29:29 51°24.037 2°54.318 3.1 14.5 3 21.7
2010-05-19 06:29:34 51°24.057 2°54.319 3.1 14.4 2 21.5
2010-05-19 06:29:39 51°24.078 2°54.321 3.1 14.5 3 23
2010-05-19 06:29:44 51°24.098 2°54.322 3.3 14.5 3 23
2010-05-19 06:29:49 51°24.117 2°54.323 3.4 14.5 3 23
2010-05-19 06:29:54 51°24.137 2°54.324 3.4 14.4 2 22.7
2010-05-19 06:29:59 51°24.157 2°54.325 3 14.4 3 22.9
2010-05-19 06:30:03 51°24.173 2°54.327 3 14.4 3 23.2
2010-05-19 06:30:09 51°24.197 2°54.328 3.1 14.5 2 22.7
2010-05-19 06:30:14 51°24.217 2°54.33 2.9 14.4 3 22.6
2010-05-19 06:30:19 51°24.237 2°54.331 3.2 14.4 3 22.7
2010-05-19 06:30:23 51°24.253 2°54.333 3.2 14.5 3 21.7
2010-05-19 06:30:29 51°24.277 2°54.335 3.6 14.4 2 23.4
2010-05-19 06:30:34 51°24.297 2°54.336 3.1 14.4 2 23.3
2010-05-19 06:30:39 51°24.318 2°54.337 2.8 14.5 2 23.5
2010-05-19 06:30:43 51°24.334 2°54.339 3.1 14.5 3 23.4
2010-05-19 06:30:49 51°24.358 2°54.34 3.3 14.4 2 23.2
2010-05-19 06:30:54 51°24.378 2°54.342 3.3 14.5 2 23
2010-05-19 06:30:59 51°24.398 2°54.343 3 14.5 2 21.9
2010-05-19 06:31:03 51°24.414 2°54.344 3 14.5 2 21.7
2010-05-19 06:31:09 51°24.438 2°54.345 2.8 14.4 2 21.8
2010-05-19 06:31:14 51°24.458 2°54.347 3.4 14.5 4 21.6
2010-05-19 06:31:19 51°24.478 2°54.348 3.7 14.5 2 20.4
2010-05-19 06:31:24 51°24.498 2°54.35 3.7 14.5 3 21.1
2010-05-19 06:31:29 51°24.518 2°54.35 3 14.5 1 20.9
2010-05-19 06:31:34 51°24.538 2°54.352 2.9 14.5 3 19
2010-05-19 06:31:39 51°24.558 2°54.353 3 14.5 2 20.1
2010-05-19 06:31:44 51°24.579 2°54.355 3.3 14.6 3 20.1
2010-05-19 06:31:49 51°24.599 2°54.356 3.6 14.6 3 19.5
2010-05-19 06:31:54 51°24.619 2°54.358 3.5 14.6 3 19.3
2010-05-19 06:31:59 51°24.639 2°54.36 3.3 14.6 3 19.3
2010-05-19 06:32:04 51°24.659 2°54.361 3.7 14.6 3 19.1
2010-05-19 06:32:09 51°24.679 2°54.362 3 14.5 2 18
2010-05-19 06:32:14 51°24.7 2°54.363 2.9 14.7 2 18.4
2010-05-19 06:32:19 51°24.72 2°54.365 3.1 14.7 2 17.7
2010-05-19 06:32:23 51°24.736 2°54.366 3.2 14.6 3 18.6
2010-05-19 06:32:29 51°24.761 2°54.368 3.2 14.6 2 18.4
2010-05-19 06:32:34 51°24.781 2°54.369 3.1 14.6 2 18.6
2010-05-19 06:32:39 51°24.801 2°54.371 3.1 14.7 3 17
2010-05-19 06:32:43 51°24.818 2°54.372 3.2 14.7 3 18.6
2010-05-19 06:32:49 51°24.842 2°54.374 3.5 14.6 3 19.2
2010-05-19 06:32:54 51°24.862 2°54.375 3.5 14.8 3 19.5
2010-05-19 06:32:59 51°24.883 2°54.376 3.3 14.7 2 19.3
2010-05-19 06:33:03 51°24.899 2°54.377 3.1 14.7 2 19.4
2010-05-19 06:33:09 51°24.923 2°54.378 2.9 14.7 1 19.3
2010-05-19 06:33:14 51°24.944 2°54.38 2.8 14.7 2 20
2010-05-19 06:33:19 51°24.964 2°54.381 2.6 14.7 1 20.3
2010-05-19 06:33:24 51°24.985 2°54.382 2.5 14.7 2 20.4
2010-05-19 06:33:29 51°25.005 2°54.383 2.8 14.6 2 20.9
2010-05-19 06:33:34 51°25.025 2°54.384 3.1 14.6 3 20.8
2010-05-19 06:33:39 51°25.045 2°54.385 3.1 14.6 2 20.7
2010-05-19 06:33:44 51°25.065 2°54.386 3 14.5 2 21.1
2010-05-19 06:33:49 51°25.086 2°54.387 2.9 14.6 2 21.4
2010-05-19 06:33:54 51°25.106 2°54.389 3.2 14.7 3 21.6
2010-05-19 06:33:59 51°25.126 2°54.39 3.3 14.6 2 21.5
2010-05-19 06:34:04 51°25.146 2°54.392 3.7 14.6 3 21.7
2010-05-19 06:34:09 51°25.167 2°54.393 3.5 14.6 2 22.1
2010-05-19 06:34:14 51°25.187 2°54.395 3.6 14.6 3 22.1
2010-05-19 06:34:19 51°25.207 2°54.396 3.6 14.6 2 21.8
2010-05-19 06:34:23 51°25.224 2°54.397 3.3 14.6 2 21.4
2010-05-19 06:34:29 51°25.248 2°54.399 3.3 14.6 2 21.1
2010-05-19 06:34:34 51°25.268 2°54.399 3.1 14.6 1 21